createdAt,value
2019-02-18T00:00:13.915Z,69.62
2019-02-18T00:02:44.109Z,70.74
2019-02-18T00:05:12.602Z,71.30
2019-02-18T00:07:40.326Z,70.79
2019-02-18T00:10:07.409Z,71.06
2019-02-18T00:12:34.687Z,70.97
2019-02-18T00:15:02.520Z,71.06
2019-02-18T00:17:30.541Z,71.47
2019-02-18T00:19:57.613Z,71.10
2019-02-18T00:22:24.879Z,71.72
2019-02-18T00:24:53.040Z,71.72
2019-02-18T00:27:20.125Z,71.56
2019-02-18T00:29:48.109Z,71.56
2019-02-18T00:32:15.202Z,70.94
2019-02-18T00:34:42.771Z,71.25
2019-02-18T00:37:09.842Z,72.17
2019-02-18T00:39:37.057Z,70.82
2019-02-18T00:42:04.899Z,70.85
2019-02-18T00:44:33.692Z,70.83
2019-02-18T00:47:01.166Z,71.60
2019-02-18T00:49:28.593Z,71.60
2019-02-18T00:51:55.668Z,71.56
2019-02-18T00:54:23.107Z,70.36
2019-02-18T00:56:51.071Z,70.35
2019-02-18T00:59:18.833Z,71.01
2019-02-18T01:01:46.902Z,71.16
2019-02-18T01:04:14.342Z,69.92
2019-02-18T01:06:42.027Z,69.92
2019-02-18T01:09:11.835Z,70.00
2019-02-18T01:11:39.600Z,70.20
2019-02-18T01:14:07.804Z,69.52
2019-02-18T01:16:34.880Z,69.90
2019-02-18T01:19:02.478Z,70.00
2019-02-18T01:21:30.174Z,70.41
2019-02-18T01:23:57.602Z,70.58
2019-02-18T01:26:25.030Z,70.11
2019-02-18T01:28:52.080Z,69.82
2019-02-18T01:31:19.197Z,70.24
2019-02-18T01:33:46.277Z,69.43
2019-02-18T01:36:14.460Z,70.00
2019-02-18T01:38:41.532Z,70.20
2019-02-18T01:41:08.956Z,70.80
2019-02-18T01:43:37.827Z,71.52
2019-02-18T01:46:05.079Z,71.64
2019-02-18T01:48:33.201Z,70.46
2019-02-18T01:51:00.298Z,70.60
2019-02-18T01:53:28.461Z,70.69
2019-02-18T01:55:55.550Z,70.69
2019-02-18T01:58:22.626Z,69.81
2019-02-18T02:00:50.471Z,69.76
2019-02-18T02:03:18.233Z,68.96
2019-02-18T02:05:46.004Z,69.85
2019-02-18T02:08:13.814Z,69.72
2019-02-18T02:10:41.274Z,70.13
2019-02-18T02:13:37.450Z,70.87
2019-02-18T02:16:10.154Z,70.35
2019-02-18T02:18:38.409Z,69.42
2019-02-18T02:21:06.898Z,70.01
2019-02-18T02:23:35.073Z,70.08
2019-02-18T02:26:02.568Z,69.81
2019-02-18T02:28:29.921Z,69.54
2019-02-18T02:31:01.039Z,69.29
2019-02-18T02:33:31.347Z,68.66
2019-02-18T02:35:58.947Z,69.29
2019-02-18T02:38:26.668Z,69.29
2019-02-18T02:40:54.745Z,69.08
2019-02-18T02:43:22.451Z,69.28
2019-02-18T02:45:50.470Z,68.99
2019-02-18T02:48:18.855Z,67.90
2019-02-18T02:50:46.516Z,68.60
2019-02-18T02:53:14.275Z,69.00
2019-02-18T02:55:41.643Z,69.14
2019-02-18T02:58:09.051Z,69.32
2019-02-18T03:00:37.179Z,68.65
2019-02-18T03:03:04.618Z,68.82
2019-02-18T03:05:32.274Z,69.21
2019-02-18T03:08:00.039Z,69.25
2019-02-18T03:10:27.238Z,68.85
2019-02-18T03:12:54.656Z,69.31
2019-02-18T03:15:23.842Z,69.57
2019-02-18T03:17:51.606Z,69.42
2019-02-18T03:20:18.974Z,69.16
2019-02-18T03:22:46.041Z,68.52
2019-02-18T03:25:16.274Z,69.23
2019-02-18T03:27:45.427Z,68.92
2019-02-18T03:30:49.696Z,68.55
2019-02-18T03:33:21.095Z,68.00
2019-02-18T03:35:48.863Z,68.10
2019-02-18T03:38:16.326Z,68.18
2019-02-18T03:40:43.684Z,68.62
2019-02-18T03:43:11.330Z,68.88
2019-02-18T03:45:38.422Z,69.19
2019-02-18T03:48:05.472Z,69.04
2019-02-18T03:50:32.515Z,69.29
2019-02-18T03:52:59.899Z,68.79
2019-02-18T03:55:27.289Z,67.83
2019-02-18T03:57:54.473Z,68.04
2019-02-18T04:00:21.797Z,68.10
2019-02-18T04:02:48.863Z,68.97
2019-02-18T04:05:16.202Z,67.93
2019-02-18T04:07:43.957Z,67.67
2019-02-18T04:10:11.413Z,67.59
2019-02-18T04:12:38.579Z,67.77
2019-02-18T04:15:08.238Z,68.02
2019-02-18T04:17:37.065Z,68.59
2019-02-18T04:20:04.730Z,68.46
2019-02-18T04:22:32.697Z,68.85
2019-02-18T04:25:00.347Z,67.67
2019-02-18T04:27:27.713Z,68.00
2019-02-18T04:29:55.066Z,68.29
2019-02-18T04:32:22.932Z,67.79
2019-02-18T04:34:50.706Z,68.29
2019-02-18T04:37:19.176Z,68.68
2019-02-18T04:39:47.066Z,69.20
2019-02-18T04:42:16.243Z,68.29
2019-02-18T04:44:44.107Z,68.50
2019-02-18T04:47:11.461Z,68.67
2019-02-18T04:49:38.852Z,69.16
2019-02-18T04:52:07.607Z,69.43
2019-02-18T04:54:34.973Z,69.19
2019-02-18T04:57:02.314Z,69.20
2019-02-18T04:59:29.971Z,68.64
2019-02-18T05:01:57.009Z,68.96
2019-02-18T05:04:24.093Z,68.52
2019-02-18T05:06:52.391Z,69.05
2019-02-18T05:09:19.435Z,69.03
2019-02-18T05:11:47.411Z,68.61
2019-02-18T05:14:14.504Z,68.43
2019-02-18T05:16:41.573Z,67.87
2019-02-18T05:19:10.465Z,67.41
2019-02-18T05:21:38.630Z,68.06
2019-02-18T05:24:05.823Z,67.83
2019-02-18T05:26:33.268Z,68.22
2019-02-18T05:29:00.463Z,67.88
2019-02-18T05:31:29.301Z,67.80
2019-02-18T05:33:56.380Z,68.49
2019-02-18T05:36:23.442Z,68.68
2019-02-18T05:38:50.612Z,67.75
2019-02-18T05:41:17.644Z,68.21
2019-02-18T05:43:44.726Z,68.18
2019-02-18T05:46:12.059Z,68.34
2019-02-18T05:48:39.518Z,67.88
2019-02-18T05:51:06.972Z,68.38
2019-02-18T05:53:35.867Z,68.47
2019-02-18T05:56:03.244Z,68.22
2019-02-18T05:58:30.390Z,68.53
2019-02-18T06:00:59.357Z,67.71
2019-02-18T06:03:26.439Z,68.11
2019-02-18T06:05:53.499Z,68.29
2019-02-18T06:08:21.225Z,68.26
2019-02-18T06:10:48.531Z,68.55
2019-02-18T06:13:15.663Z,68.61
2019-02-18T06:15:42.768Z,68.47
2019-02-18T06:18:09.796Z,67.97
2019-02-18T06:20:36.874Z,67.93
2019-02-18T06:23:03.966Z,67.86
2019-02-18T06:25:31.439Z,68.07
2019-02-18T06:27:58.478Z,68.50
2019-02-18T06:30:25.556Z,68.18
2019-02-18T06:32:52.612Z,68.21
2019-02-18T06:35:19.696Z,68.37
2019-02-18T06:37:47.854Z,68.37
2019-02-18T06:40:14.906Z,67.95
2019-02-18T06:42:41.988Z,67.89
2019-02-18T06:45:35.097Z,67.83
2019-02-18T06:48:32.085Z,67.90
2019-02-18T06:50:59.797Z,67.30
2019-02-18T06:53:27.251Z,67.06
2019-02-18T06:55:54.917Z,67.03
2019-02-18T06:58:49.099Z,67.42
2019-02-18T07:01:29.355Z,67.26
2019-02-18T07:04:13.225Z,66.86
2019-02-18T07:07:09.944Z,66.73
2019-02-18T07:10:03.305Z,67.60
2019-02-18T07:12:50.629Z,66.04
2019-02-18T07:15:18.092Z,66.15
2019-02-18T07:17:45.743Z,65.89
2019-02-18T07:20:13.117Z,66.00
2019-02-18T07:22:41.262Z,65.86
2019-02-18T07:25:09.146Z,65.73
2019-02-18T07:27:37.303Z,65.52
2019-02-18T07:30:07.182Z,64.85
2019-02-18T07:32:34.580Z,64.85
2019-02-18T07:35:01.632Z,64.56
2019-02-18T07:37:29.563Z,64.74
2019-02-18T07:40:01.499Z,64.41
2019-02-18T07:42:26.405Z,63.95
2019-02-18T07:44:53.454Z,63.93
2019-02-18T07:47:20.525Z,63.64
2019-02-18T07:49:47.906Z,63.66
2019-02-18T07:52:14.962Z,62.94
2019-02-18T07:54:42.039Z,62.39
2019-02-18T07:57:09.212Z,62.81
2019-02-18T07:59:36.262Z,62.33
2019-02-18T08:02:05.182Z,62.56
2019-02-18T08:04:36.474Z,63.06
2019-02-18T08:07:03.830Z,62.54
2019-02-18T08:09:32.005Z,61.82
2019-02-18T08:11:59.053Z,60.78
2019-02-18T08:14:26.094Z,61.81
2019-02-18T08:16:54.447Z,61.32
2019-02-18T08:19:23.281Z,61.35
2019-02-18T08:21:50.358Z,60.31
2019-02-18T08:24:17.403Z,61.39
2019-02-18T08:26:44.480Z,61.00
2019-02-18T08:29:11.523Z,60.02
2019-02-18T08:31:39.686Z,59.51
2019-02-18T08:34:06.738Z,60.13
2019-02-18T08:36:33.930Z,59.33
2019-02-18T08:39:01.040Z,60.43
2019-02-18T08:41:31.301Z,59.17
2019-02-18T08:43:59.389Z,58.19
2019-02-18T08:46:26.458Z,57.67
2019-02-18T08:48:53.507Z,57.81
2019-02-18T08:51:20.570Z,56.77
2019-02-18T08:53:47.991Z,57.48
2019-02-18T08:56:15.173Z,57.32
2019-02-18T08:58:42.693Z,56.79
2019-02-18T09:01:10.126Z,56.79
2019-02-18T09:03:41.858Z,57.01
2019-02-18T09:06:08.953Z,56.20
2019-02-18T09:08:36.371Z,55.49
2019-02-18T09:11:05.010Z,55.41
2019-02-18T09:13:32.495Z,55.41
2019-02-18T09:16:00.586Z,54.91
2019-02-18T09:18:29.066Z,54.79
2019-02-18T09:20:56.498Z,54.22
2019-02-18T09:24:02.258Z,53.55
2019-02-18T09:26:30.330Z,54.49
2019-02-18T09:29:03.752Z,53.40
2019-02-18T09:31:33.430Z,53.44
2019-02-18T09:34:01.098Z,53.40
2019-02-18T09:36:29.987Z,54.68
2019-02-18T09:38:57.183Z,53.87
2019-02-18T09:41:26.338Z,53.74
2019-02-18T09:43:54.104Z,54.56
2019-02-18T09:46:21.583Z,53.69
2019-02-18T09:48:50.035Z,54.25
2019-02-18T09:51:18.516Z,54.42
2019-02-18T09:53:45.607Z,54.72
2019-02-18T09:56:13.052Z,54.80
2019-02-18T09:58:40.089Z,53.92
2019-02-18T10:01:07.836Z,54.12
2019-02-18T10:03:35.801Z,53.93
2019-02-18T10:06:03.463Z,52.91
2019-02-18T10:08:30.882Z,54.07
2019-02-18T10:10:58.582Z,53.08
2019-02-18T10:13:26.072Z,55.55
2019-02-18T10:15:55.254Z,56.71
2019-02-18T10:18:23.710Z,55.84
2019-02-18T10:20:52.119Z,55.99
2019-02-18T10:23:19.764Z,54.21
2019-02-18T10:25:46.825Z,55.19
2019-02-18T10:28:14.155Z,53.41
2019-02-18T10:30:41.640Z,54.10
2019-02-18T10:33:08.978Z,54.27
2019-02-18T10:35:36.161Z,54.91
2019-02-18T10:38:03.779Z,55.15
2019-02-18T10:40:31.149Z,54.65
2019-02-18T10:42:58.191Z,54.94
2019-02-18T10:45:25.443Z,55.35
2019-02-18T10:47:53.663Z,56.22
2019-02-18T10:50:20.697Z,57.83
2019-02-18T10:52:47.740Z,57.23
2019-02-18T10:55:15.400Z,57.33
2019-02-18T10:57:42.741Z,57.92
2019-02-18T11:00:10.669Z,57.59
2019-02-18T11:02:38.941Z,56.79
2019-02-18T11:05:06.997Z,56.97
2019-02-18T11:07:34.213Z,55.71
2019-02-18T11:10:03.988Z,55.37
2019-02-18T11:12:32.369Z,54.96
2019-02-18T11:14:59.852Z,55.61
2019-02-18T11:17:26.918Z,56.14
2019-02-18T11:19:54.037Z,55.09
2019-02-18T11:22:21.891Z,55.34
2019-02-18T11:24:49.564Z,56.09
2019-02-18T11:27:16.592Z,54.99
2019-02-18T11:29:44.379Z,54.53
2019-02-18T11:32:12.890Z,56.43
2019-02-18T11:34:41.531Z,54.56
2019-02-18T11:37:09.601Z,55.86
2019-02-18T11:39:37.262Z,55.21
2019-02-18T11:42:04.619Z,56.55
2019-02-18T11:44:32.075Z,56.61
2019-02-18T11:46:59.450Z,57.16
2019-02-18T11:49:26.490Z,56.61
2019-02-18T11:51:54.138Z,56.46
2019-02-18T11:54:21.214Z,56.25
2019-02-18T11:56:49.238Z,57.41
2019-02-18T11:59:24.026Z,57.22
2019-02-18T12:01:46.032Z,57.68
2019-02-18T12:04:13.485Z,56.12
2019-02-18T12:06:40.830Z,55.24
2019-02-18T12:09:08.505Z,56.31
2019-02-18T12:14:05.857Z,56.27
2019-02-18T12:16:33.515Z,56.58
2019-02-18T12:19:01.487Z,58.03
2019-02-18T12:21:28.842Z,57.06
2019-02-18T12:23:56.239Z,56.00
2019-02-18T12:26:23.680Z,56.22
2019-02-18T12:28:51.518Z,56.32
2019-02-18T12:31:18.938Z,57.49
2019-02-18T12:33:46.375Z,56.79
2019-02-18T12:36:13.461Z,57.10
2019-02-18T12:38:41.155Z,57.37
2019-02-18T12:41:08.929Z,56.58
2019-02-18T12:43:36.669Z,56.72
2019-02-18T12:46:04.060Z,56.75
2019-02-18T12:48:31.477Z,57.21
2019-02-18T12:50:58.917Z,56.24
2019-02-18T12:53:25.974Z,56.20
2019-02-18T12:55:53.046Z,56.73
2019-02-18T12:58:21.216Z,56.73
2019-02-18T13:00:49.488Z,57.04
2019-02-18T13:03:16.571Z,55.60
2019-02-18T13:05:43.943Z,55.46
2019-02-18T13:08:12.793Z,56.52
2019-02-18T13:10:39.876Z,56.43
2019-02-18T13:13:07.503Z,56.36
2019-02-18T13:15:35.879Z,55.93
2019-02-18T13:20:31.400Z,55.92
2019-02-18T13:23:00.393Z,55.40
2019-02-18T13:25:29.090Z,54.77
2019-02-18T13:27:57.382Z,51.87
2019-02-18T13:30:24.453Z,49.70
2019-02-18T13:32:52.650Z,48.89
2019-02-18T13:35:21.130Z,47.88
2019-02-18T13:37:48.501Z,44.90
2019-02-18T13:40:15.895Z,44.33
2019-02-18T13:42:44.746Z,44.23
2019-02-18T13:45:12.103Z,46.71
2019-02-18T13:47:39.863Z,47.12
2019-02-18T13:50:07.387Z,44.83
2019-02-18T13:52:34.775Z,44.34
2019-02-18T13:55:02.541Z,44.85
2019-02-18T13:57:29.703Z,45.21
2019-02-18T13:59:57.055Z,46.59
2019-02-18T14:02:24.336Z,45.76
2019-02-18T14:04:51.909Z,46.98
2019-02-18T14:07:19.081Z,47.77
2019-02-18T14:09:47.225Z,49.53
2019-02-18T14:12:16.364Z,49.25
2019-02-18T14:14:43.325Z,50.54
2019-02-18T14:17:10.680Z,49.75
2019-02-18T14:19:37.879Z,49.32
2019-02-18T14:22:06.876Z,48.86
2019-02-18T14:24:33.927Z,47.94
2019-02-18T14:27:05.567Z,46.92
2019-02-18T14:29:32.631Z,48.67
2019-02-18T14:32:01.529Z,48.23
2019-02-18T14:34:29.070Z,46.81
2019-02-18T14:36:56.104Z,46.13
2019-02-18T14:39:25.195Z,46.16
2019-02-18T14:41:54.049Z,47.80
2019-02-18T14:44:21.188Z,47.91
2019-02-18T14:46:48.757Z,47.77
2019-02-18T14:49:18.778Z,47.42
2019-02-18T14:51:46.437Z,46.26
2019-02-18T14:54:15.224Z,46.68
2019-02-18T14:56:42.577Z,43.19
2019-02-18T14:59:09.939Z,43.78
2019-02-18T15:01:37.393Z,45.58
2019-02-18T15:04:05.561Z,45.97
2019-02-18T15:06:33.222Z,45.60
2019-02-18T15:09:00.885Z,46.88
2019-02-18T15:11:28.858Z,45.54
2019-02-18T15:13:56.215Z,44.71
2019-02-18T15:16:25.298Z,46.04
2019-02-18T15:18:53.413Z,45.51
2019-02-18T15:21:20.468Z,43.89
2019-02-18T15:23:47.915Z,43.55
2019-02-18T15:26:15.339Z,43.40
2019-02-18T15:28:42.482Z,42.74
2019-02-18T15:31:09.549Z,42.30
2019-02-18T15:33:37.802Z,42.68
2019-02-18T15:36:04.873Z,41.44
2019-02-18T15:38:32.026Z,41.58
2019-02-18T15:40:59.387Z,41.86
2019-02-18T15:43:26.818Z,41.78
2019-02-18T15:45:53.941Z,41.64
2019-02-18T15:48:21.501Z,42.36
2019-02-18T15:50:48.598Z,44.29
2019-02-18T15:53:16.054Z,44.89
2019-02-18T15:55:43.111Z,45.96
2019-02-18T15:58:11.502Z,46.74
2019-02-18T16:00:38.810Z,47.77
2019-02-18T16:03:06.422Z,48.44
2019-02-18T16:05:34.034Z,49.36
2019-02-18T16:08:01.692Z,49.87
2019-02-18T16:10:29.455Z,49.80
2019-02-18T16:12:56.810Z,50.25
2019-02-18T16:15:24.777Z,51.00
2019-02-18T16:17:52.135Z,51.36
2019-02-18T16:20:20.000Z,51.29
2019-02-18T16:22:47.582Z,51.31
2019-02-18T16:25:18.097Z,51.69
2019-02-18T16:27:45.548Z,52.18
2019-02-18T16:30:13.012Z,51.85
2019-02-18T16:32:40.688Z,51.76
2019-02-18T16:35:08.378Z,52.03
2019-02-18T16:37:36.122Z,52.53
2019-02-18T16:40:04.328Z,53.18
2019-02-18T16:42:33.287Z,53.21
2019-02-18T16:45:00.776Z,53.00
2019-02-18T16:47:29.411Z,53.54
2019-02-18T16:49:56.531Z,53.80
2019-02-18T16:52:24.744Z,54.49
2019-02-18T16:54:52.120Z,54.58
2019-02-18T16:57:21.285Z,54.76
2019-02-18T16:59:49.039Z,55.45
2019-02-18T17:02:16.432Z,55.80
2019-02-18T17:04:44.373Z,56.04
2019-02-18T17:07:11.761Z,55.98
2019-02-18T17:09:38.814Z,56.95
2019-02-18T17:12:05.951Z,57.48
2019-02-18T17:14:33.025Z,57.16
2019-02-18T17:17:00.073Z,57.46
2019-02-18T17:19:27.486Z,57.40
2019-02-18T17:21:55.535Z,58.09
2019-02-18T17:24:22.644Z,58.67
2019-02-18T17:26:52.089Z,59.00
2019-02-18T17:29:19.588Z,58.68
2019-02-18T17:31:48.444Z,58.53
2019-02-18T17:34:15.521Z,58.92
2019-02-18T17:36:42.971Z,58.65
2019-02-18T17:39:10.051Z,59.03
2019-02-18T17:41:37.207Z,59.41
2019-02-18T17:44:04.998Z,60.57
2019-02-18T17:46:32.357Z,60.80
2019-02-18T17:48:59.431Z,62.13
2019-02-18T17:51:27.064Z,61.24
2019-02-18T17:53:55.134Z,62.58
2019-02-18T17:56:23.208Z,61.21
2019-02-18T17:58:51.626Z,63.41
2019-02-18T18:01:19.869Z,61.51
2019-02-18T18:03:47.522Z,63.29
2019-02-18T18:06:15.043Z,61.72
2019-02-18T18:08:43.540Z,61.78
2019-02-18T18:11:11.037Z,61.18
2019-02-18T18:13:38.088Z,60.36
2019-02-18T18:16:05.156Z,61.40
2019-02-18T18:18:32.690Z,61.13
2019-02-18T18:20:59.782Z,60.59
2019-02-18T18:23:26.815Z,59.72
2019-02-18T18:25:53.862Z,58.95
2019-02-18T18:28:21.515Z,59.24
2019-02-18T18:30:50.061Z,59.52
2019-02-18T18:33:19.869Z,59.92
2019-02-18T18:35:47.444Z,58.83
2019-02-18T18:38:14.595Z,58.53
2019-02-18T18:40:41.663Z,58.06
2019-02-18T18:43:08.747Z,57.70
2019-02-18T18:45:37.458Z,58.46
2019-02-18T18:48:05.035Z,58.41
2019-02-18T18:50:32.714Z,58.66
2019-02-18T18:53:00.366Z,58.23
2019-02-18T18:55:28.003Z,58.20
2019-02-18T18:57:56.568Z,59.66
2019-02-18T19:00:23.804Z,59.07
2019-02-18T19:02:51.212Z,59.75
